sensor_id;sensor_type;location;lat;lon;timestamp;pressure;altitude;pressure_sealevel;temperature;humidity
23281;BME280;11809;56.390;-3.266;2023-11-19T00:02:12;98865.50;;;14.89;61.00
23281;BME280;11809;56.390;-3.266;2023-11-19T00:04:43;98865.63;;;14.88;61.13
23281;BME280;11809;56.390;-3.266;2023-11-19T00:07:13;98868.69;;;14.83;61.14
23281;BME280;11809;56.390;-3.266;2023-11-19T00:09:47;98869.78;;;14.81;61.39
23281;BME280;11809;56.390;-3.266;2023-11-19T00:12:20;98859.34;;;14.79;61.46
23281;BME280;11809;56.390;-3.266;2023-11-19T00:14:51;98853.47;;;14.76;61.27
23281;BME280;11809;56.390;-3.266;2023-11-19T00:17:22;98861.66;;;14.73;61.63
23281;BME280;11809;56.390;-3.266;2023-11-19T00:19:53;98854.38;;;14.65;61.55
23281;BME280;11809;56.390;-3.266;2023-11-19T00:22:24;98857.72;;;14.67;61.81
23281;BME280;11809;56.390;-3.266;2023-11-19T00:24:54;98857.63;;;14.69;61.76
23281;BME280;11809;56.390;-3.266;2023-11-19T00:27:28;98859.69;;;14.65;61.73
23281;BME280;11809;56.390;-3.266;2023-11-19T00:29:59;98862.31;;;14.65;61.88
23281;BME280;11809;56.390;-3.266;2023-11-19T00:32:32;98855.50;;;14.63;61.80
23281;BME280;11809;56.390;-3.266;2023-11-19T00:35:04;98855.75;;;14.60;62.00
23281;BME280;11809;56.390;-3.266;2023-11-19T00:37:35;98860.44;;;14.56;62.06
23281;BME280;11809;56.390;-3.266;2023-11-19T00:40:07;98852.66;;;14.54;62.23
23281;BME280;11809;56.390;-3.266;2023-11-19T00:42:41;98842.75;;;14.47;62.16
23281;BME280;11809;56.390;-3.266;2023-11-19T00:45:12;98853.50;;;14.55;62.20
23281;BME280;11809;56.390;-3.266;2023-11-19T00:47:43;98857.34;;;14.51;62.03
23281;BME280;11809;56.390;-3.266;2023-11-19T00:50:14;98855.69;;;14.50;62.52
23281;BME280;11809;56.390;-3.266;2023-11-19T00:52:45;98851.50;;;14.47;62.22
23281;BME280;11809;56.390;-3.266;2023-11-19T00:55:15;98852.31;;;14.48;62.42
23281;BME280;11809;56.390;-3.266;2023-11-19T00:57:49;98839.75;;;14.40;62.40
23281;BME280;11809;56.390;-3.266;2023-11-19T01:00:19;98843.69;;;14.46;62.53
23281;BME280;11809;56.390;-3.266;2023-11-19T01:02:54;98835.06;;;14.44;62.58
23281;BME280;11809;56.390;-3.266;2023-11-19T01:05:25;98837.00;;;14.42;62.57
23281;BME280;11809;56.390;-3.266;2023-11-19T01:07:56;98840.59;;;14.41;62.66
23281;BME280;11809;56.390;-3.266;2023-11-19T01:10:26;98829.06;;;14.42;62.75
23281;BME280;11809;56.390;-3.266;2023-11-19T01:12:59;98821.91;;;14.33;62.89
23281;BME280;11809;56.390;-3.266;2023-11-19T01:15:33;98833.63;;;14.40;62.60
23281;BME280;11809;56.390;-3.266;2023-11-19T01:18:03;98831.97;;;14.39;62.80
23281;BME280;11809;56.390;-3.266;2023-11-19T01:20:36;98829.34;;;14.39;62.93
23281;BME280;11809;56.390;-3.266;2023-11-19T01:23:07;98828.63;;;14.37;62.88
23281;BME280;11809;56.390;-3.266;2023-11-19T01:25:38;98828.63;;;14.37;62.66
23281;BME280;11809;56.390;-3.266;2023-11-19T01:28:11;98825.00;;;14.38;62.75
23281;BME280;11809;56.390;-3.266;2023-11-19T01:30:42;98819.88;;;14.36;62.99
23281;BME280;11809;56.390;-3.266;2023-11-19T01:33:12;98821.66;;;14.36;62.96
23281;BME280;11809;56.390;-3.266;2023-11-19T01:35:43;98821.66;;;14.36;62.93
23281;BME280;11809;56.390;-3.266;2023-11-19T01:38:13;98813.59;;;14.37;62.80
23281;BME280;11809;56.390;-3.266;2023-11-19T01:40:44;98818.06;;;14.37;63.12
23281;BME280;11809;56.390;-3.266;2023-11-19T01:43:36;98823.19;;;14.38;63.00
23281;BME280;11809;56.390;-3.266;2023-11-19T01:46:08;98820.56;;;14.38;62.90
23281;BME280;11809;56.390;-3.266;2023-11-19T01:48:44;98823.19;;;14.38;62.99
23281;BME280;11809;56.390;-3.266;2023-11-19T01:51:16;98828.50;;;14.38;63.10
23281;BME280;11809;56.390;-3.266;2023-11-19T01:53:48;98826.09;;;14.35;62.92
23281;BME280;11809;56.390;-3.266;2023-11-19T01:56:20;98828.63;;;14.37;63.07
23281;BME280;11809;56.390;-3.266;2023-11-19T01:58:54;98828.34;;;14.40;62.98
23281;BME280;11809;56.390;-3.266;2023-11-19T02:01:25;98827.66;;;14.38;63.05
23281;BME280;11809;56.390;-3.266;2023-11-19T02:03:57;98830.28;;;14.38;63.15
23281;BME280;11809;56.390;-3.266;2023-11-19T02:06:28;98832.22;;;14.36;63.04
23281;BME280;11809;56.390;-3.266;2023-11-19T02:09:00;98834.88;;;14.36;63.08
23281;BME280;11809;56.390;-3.266;2023-11-19T02:11:35;98827.41;;;14.30;63.29
23281;BME280;11809;56.390;-3.266;2023-11-19T02:14:08;98830.53;;;14.35;63.31
23281;BME280;11809;56.390;-3.266;2023-11-19T02:16:39;98822.88;;;14.32;63.07
23281;BME280;11809;56.390;-3.266;2023-11-19T02:19:10;98831.38;;;14.35;63.03
23281;BME280;11809;56.390;-3.266;2023-11-19T02:21:40;98824.91;;;14.28;63.10
23281;BME280;11809;56.390;-3.266;2023-11-19T02:24:12;98829.59;;;14.36;63.34
23281;BME280;11809;56.390;-3.266;2023-11-19T02:26:49;98826.94;;;14.36;63.32
23281;BME280;11809;56.390;-3.266;2023-11-19T02:29:26;98831.13;;;14.38;63.32
23281;BME280;11809;56.390;-3.266;2023-11-19T02:31:56;98830.28;;;14.38;63.16
23281;BME280;11809;56.390;-3.266;2023-11-19T02:34:27;98822.25;;;14.39;63.29
23281;BME280;11809;56.390;-3.266;2023-11-19T02:36:57;98823.91;;;14.40;62.99
23281;BME280;11809;56.390;-3.266;2023-11-19T02:39:28;98825.69;;;14.40;63.26
23281;BME280;11809;56.390;-3.266;2023-11-19T02:41:58;98823.91;;;14.40;63.13
23281;BME280;11809;56.390;-3.266;2023-11-19T02:44:32;98820.41;;;14.40;63.26
23281;BME280;11809;56.390;-3.266;2023-11-19T02:47:02;98820.31;;;14.41;63.24
23281;BME280;11809;56.390;-3.266;2023-11-19T02:49:34;98818.50;;;14.42;63.12
23281;BME280;11809;56.390;-3.266;2023-11-19T02:52:06;98816.81;;;14.41;63.25
23281;BME280;11809;56.390;-3.266;2023-11-19T02:54:37;98819.31;;;14.42;63.25
23281;BME280;11809;56.390;-3.266;2023-11-19T02:57:08;98822.81;;;14.43;63.24
23281;BME280;11809;56.390;-3.266;2023-11-19T02:59:45;98825.44;;;14.43;63.17
23281;BME280;11809;56.390;-3.266;2023-11-19T03:02:16;98823.66;;;14.43;63.19
23281;BME280;11809;56.390;-3.266;2023-11-19T03:04:47;98818.50;;;14.42;63.33
23281;BME280;11809;56.390;-3.266;2023-11-19T03:07:14;98824.59;;;14.42;63.34
23281;BME280;11809;56.390;-3.266;2023-11-19T03:09:45;98815.41;;;14.37;63.22
23281;BME280;11809;56.390;-3.266;2023-11-19T03:12:16;98821.16;;;14.42;63.14
23281;BME280;11809;56.390;-3.266;2023-11-19T03:14:49;98797.88;;;14.36;63.37
23281;BME280;11809;56.390;-3.266;2023-11-19T03:17:20;98811.28;;;14.44;63.26
23281;BME280;11809;56.390;-3.266;2023-11-19T03:19:51;98807.78;;;14.43;63.39
23281;BME280;11809;56.390;-3.266;2023-11-19T03:22:21;98797.88;;;14.36;63.18
23281;BME280;11809;56.390;-3.266;2023-11-19T03:24:52;98808.63;;;14.44;63.28
23281;BME280;11809;56.390;-3.266;2023-11-19T03:27:22;98806.09;;;14.42;63.24
23281;BME280;11809;56.390;-3.266;2023-11-19T03:29:55;98813.91;;;14.44;63.41
23281;BME280;11809;56.390;-3.266;2023-11-19T03:32:26;98804.69;;;14.38;63.35
23281;BME280;11809;56.390;-3.266;2023-11-19T03:34:56;98818.09;;;14.46;63.26
23281;BME280;11809;56.390;-3.266;2023-11-19T03:37:27;98818.09;;;14.46;63.23
23281;BME280;11809;56.390;-3.266;2023-11-19T03:39:57;98807.53;;;14.46;63.31
23281;BME280;11809;56.390;-3.266;2023-11-19T03:42:29;98816.31;;;14.47;63.50
23281;BME280;11809;56.390;-3.266;2023-11-19T03:45:02;98817.97;;;14.48;63.27
23281;BME280;11809;56.390;-3.266;2023-11-19T03:47:35;98823.13;;;14.49;63.54
23281;BME280;11809;56.390;-3.266;2023-11-19T03:50:07;98825.91;;;14.48;63.28
23281;BME280;11809;56.390;-3.266;2023-11-19T03:52:37;98830.22;;;14.49;63.28
23281;BME280;11809;56.390;-3.266;2023-11-19T03:55:10;98825.78;;;14.49;63.12
23281;BME280;11809;56.390;-3.266;2023-11-19T03:57:41;98834.56;;;14.50;63.11
23281;BME280;11809;56.390;-3.266;2023-11-19T04:00:14;98831.91;;;14.50;63.35
23281;BME280;11809;56.390;-3.266;2023-11-19T04:02:45;98820.31;;;14.41;63.29
23281;BME280;11809;56.390;-3.266;2023-11-19T04:05:15;98832.88;;;14.49;63.39
23281;BME280;11809;56.390;-3.266;2023-11-19T04:07:46;98842.59;;;14.48;63.45
23281;BME280;11809;56.390;-3.266;2023-11-19T04:10:16;98839.94;;;14.48;63.36
23281;BME280;11809;56.390;-3.266;2023-11-19T04:12:47;98842.75;;;14.47;63.39
23281;BME280;11809;56.390;-3.266;2023-11-19T04:15:20;98843.44;;;14.49;63.59
23281;BME280;11809;56.390;-3.266;2023-11-19T04:17:51;98833.38;;;14.43;63.38
23281;BME280;11809;56.390;-3.266;2023-11-19T04:20:21;98843.28;;;14.50;63.37
23281;BME280;11809;56.390;-3.266;2023-11-19T04:22:52;98843.44;;;14.49;63.59
23281;BME280;11809;56.390;-3.266;2023-11-19T04:25:22;98848.72;;;14.49;63.32
23281;BME280;11809;56.390;-3.266;2023-11-19T04:27:53;98845.13;;;14.50;63.63
23281;BME280;11809;56.390;-3.266;2023-11-19T04:30:26;98838.84;;;14.51;63.45
23281;BME280;11809;56.390;-3.266;2023-11-19T04:32:59;98847.88;;;14.48;63.42
23281;BME280;11809;56.390;-3.266;2023-11-19T04:35:29;98839.84;;;14.50;63.63
23281;BME280;11809;56.390;-3.266;2023-11-19T04:37:59;98849.56;;;14.49;63.57
23281;BME280;11809;56.390;-3.266;2023-11-19T04:40:29;98846.78;;;14.51;63.38
23281;BME280;11809;56.390;-3.266;2023-11-19T04:43:01;98848.56;;;14.50;63.53
23281;BME280;11809;56.390;-3.266;2023-11-19T04:45:34;98845.13;;;14.50;63.43
23281;BME280;11809;56.390;-3.266;2023-11-19T04:48:05;98853.06;;;14.50;63.53
23281;BME280;11809;56.390;-3.266;2023-11-19T04:50:36;98852.22;;;14.49;63.54
23281;BME280;11809;56.390;-3.266;2023-11-19T04:53:07;98845.94;;;14.50;63.53
23281;BME280;11809;56.390;-3.266;2023-11-19T04:55:37;98844.41;;;14.48;63.61
23281;BME280;11809;56.390;-3.266;2023-11-19T04:58:07;98847.78;;;14.50;63.69
23281;BME280;11809;56.390;-3.266;2023-11-19T05:00:40;98850.41;;;14.50;63.36
23281;BME280;11809;56.390;-3.266;2023-11-19T05:03:10;98853.06;;;14.50;63.68
23281;BME280;11809;56.390;-3.266;2023-11-19T05:05:41;98848.72;;;14.49;63.74
23281;BME280;11809;56.390;-3.266;2023-11-19T05:08:11;98848.72;;;14.49;63.88
23281;BME280;11809;56.390;-3.266;2023-11-19T05:10:41;98851.38;;;14.49;63.81
23281;BME280;11809;56.390;-3.266;2023-11-19T05:13:12;98859.28;;;14.49;63.75
23281;BME280;11809;56.390;-3.266;2023-11-19T05:15:45;98860.13;;;14.49;63.79
23281;BME280;11809;56.390;-3.266;2023-11-19T05:18:15;98859.28;;;14.49;63.69
23281;BME280;11809;56.390;-3.266;2023-11-19T05:20:45;98869.88;;;14.49;63.59
23281;BME280;11809;56.390;-3.266;2023-11-19T05:23:16;98869.88;;;14.49;63.69
23281;BME280;11809;56.390;-3.266;2023-11-19T05:25:47;98865.09;;;14.43;63.50
23281;BME280;11809;56.390;-3.266;2023-11-19T05:28:18;98878.75;;;14.48;63.68
23281;BME280;11809;56.390;-3.266;2023-11-19T05:30:51;98875.16;;;14.49;63.81
23281;BME280;11809;56.390;-3.266;2023-11-19T05:33:21;98869.88;;;14.49;63.91
23281;BME280;11809;56.390;-3.266;2023-11-19T05:35:51;98876.41;;;14.45;63.80
23281;BME280;11809;56.390;-3.266;2023-11-19T05:38:22;98883.78;;;14.51;63.62
23281;BME280;11809;56.390;-3.266;2023-11-19T05:40:52;98876.84;;;14.50;63.82
23281;BME280;11809;56.390;-3.266;2023-11-19T05:43:22;98882.94;;;14.50;63.50
23281;BME280;11809;56.390;-3.266;2023-11-19T05:45:55;98887.28;;;14.51;63.79
23281;BME280;11809;56.390;-3.266;2023-11-19T05:48:26;98878.50;;;14.51;63.56
23281;BME280;11809;56.390;-3.266;2023-11-19T05:50:57;98881.13;;;14.51;64.00
23281;BME280;11809;56.390;-3.266;2023-11-19T05:53:27;98873.75;;;14.45;63.61
23281;BME280;11809;56.390;-3.266;2023-11-19T05:55:57;98868.47;;;14.45;63.60
23281;BME280;11809;56.390;-3.266;2023-11-19T05:58:31;98876.56;;;14.53;63.50
23281;BME280;11809;56.390;-3.266;2023-11-19T06:01:05;98875.84;;;14.51;63.62
23281;BME280;11809;56.390;-3.266;2023-11-19T06:03:35;98879.34;;;14.51;63.82
23281;BME280;11809;56.390;-3.266;2023-11-19T06:06:07;98877.53;;;14.52;63.58
23281;BME280;11809;56.390;-3.266;2023-11-19T06:08:38;98872.91;;;14.44;63.64
23281;BME280;11809;56.390;-3.266;2023-11-19T06:11:10;98881.13;;;14.51;63.69
23281;BME280;11809;56.390;-3.266;2023-11-19T06:13:46;98891.72;;;14.51;63.97
23281;BME280;11809;56.390;-3.266;2023-11-19T06:16:21;98891.00;;;14.49;63.76
23281;BME280;11809;56.390;-3.266;2023-11-19T06:18:51;98887.41;;;14.50;63.73
23281;BME280;11809;56.390;-3.266;2023-11-19T06:21:22;98886.56;;;14.49;63.69
23281;BME280;11809;56.390;-3.266;2023-11-19T06:23:52;98891.84;;;14.49;63.92
23281;BME280;11809;56.390;-3.266;2023-11-19T06:26:23;98890.06;;;14.50;63.73
23281;BME280;11809;56.390;-3.266;2023-11-19T06:28:53;98889.06;;;14.51;63.82
23281;BME280;11809;56.390;-3.266;2023-11-19T06:31:26;98885.59;;;14.50;63.74
23281;BME280;11809;56.390;-3.266;2023-11-19T06:33:56;98890.06;;;14.50;63.97
23281;BME280;11809;56.390;-3.266;2023-11-19T06:36:27;98884.78;;;14.50;63.80
23281;BME280;11809;56.390;-3.266;2023-11-19T06:38:57;98896.31;;;14.49;63.96
23281;BME280;11809;56.390;-3.266;2023-11-19T06:41:28;98891.84;;;14.49;64.00
23281;BME280;11809;56.390;-3.266;2023-11-19T06:43:59;98883.47;;;14.44;63.87
23281;BME280;11809;56.390;-3.266;2023-11-19T06:46:32;98898.00;;;14.50;63.63
23281;BME280;11809;56.390;-3.266;2023-11-19T06:49:02;98896.16;;;14.50;64.00
23281;BME280;11809;56.390;-3.266;2023-11-19T06:51:34;98891.72;;;14.51;63.88
23281;BME280;11809;56.390;-3.266;2023-11-19T06:54:05;98896.03;;;14.52;63.94
23281;BME280;11809;56.390;-3.266;2023-11-19T06:56:35;98903.97;;;14.52;64.06
23281;BME280;11809;56.390;-3.266;2023-11-19T06:59:06;98910.09;;;14.52;63.95
23281;BME280;11809;56.390;-3.266;2023-11-19T07:01:39;98912.59;;;14.54;63.79
23281;BME280;11809;56.390;-3.266;2023-11-19T07:04:10;98907.47;;;14.52;63.93
23281;BME280;11809;56.390;-3.266;2023-11-19T07:06:41;98909.97;;;14.54;63.86
23281;BME280;11809;56.390;-3.266;2023-11-19T07:09:11;98913.56;;;14.53;64.10
23281;BME280;11809;56.390;-3.266;2023-11-19T07:11:42;98925.81;;;14.54;63.78
23281;BME280;11809;56.390;-3.266;2023-11-19T07:14:12;98925.81;;;14.54;63.86
23281;BME280;11809;56.390;-3.266;2023-11-19T07:16:46;98931.97;;;14.54;63.86
23281;BME280;11809;56.390;-3.266;2023-11-19T07:19:17;98938.19;;;14.53;63.97
23281;BME280;11809;56.390;-3.266;2023-11-19T07:21:47;98933.75;;;14.54;63.75
23281;BME280;11809;56.390;-3.266;2023-11-19T07:24:18;98941.69;;;14.54;63.93
23281;BME280;11809;56.390;-3.266;2023-11-19T07:26:48;98940.00;;;14.53;64.09
23281;BME280;11809;56.390;-3.266;2023-11-19T07:29:19;98946.97;;;14.54;64.02
23281;BME280;11809;56.390;-3.266;2023-11-19T07:31:55;98950.47;;;14.54;63.95
23281;BME280;11809;56.390;-3.266;2023-11-19T07:34:29;98948.66;;;14.55;63.75
23281;BME280;11809;56.390;-3.266;2023-11-19T07:36:59;98952.25;;;14.54;63.78
23281;BME280;11809;56.390;-3.266;2023-11-19T07:39:30;98957.28;;;14.57;64.00
23281;BME280;11809;56.390;-3.266;2023-11-19T07:42:01;98952.59;;;14.61;63.97
23281;BME280;11809;56.390;-3.266;2023-11-19T07:44:32;98967.38;;;14.63;64.14
23281;BME280;11809;56.390;-3.266;2023-11-19T07:47:05;98967.13;;;14.66;63.56
23281;BME280;11809;56.390;-3.266;2023-11-19T07:49:36;98975.75;;;14.68;63.68
23281;BME280;11809;56.390;-3.266;2023-11-19T07:52:06;98970.31;;;14.70;63.58
23281;BME280;11809;56.390;-3.266;2023-11-19T07:54:40;98963.25;;;14.70;63.60
23281;BME280;11809;56.390;-3.266;2023-11-19T07:57:10;98976.31;;;14.72;63.80
23281;BME280;11809;56.390;-3.266;2023-11-19T07:59:41;98974.91;;;14.68;63.76
23281;BME280;11809;56.390;-3.266;2023-11-19T08:02:14;98978.50;;;14.67;63.72
23281;BME280;11809;56.390;-3.266;2023-11-19T08:04:46;98980.19;;;14.68;63.67
23281;BME280;11809;56.390;-3.266;2023-11-19T08:07:19;98977.69;;;14.66;63.83
23281;BME280;11809;56.390;-3.266;2023-11-19T08:09:49;98981.28;;;14.65;63.92
23281;BME280;11809;56.390;-3.266;2023-11-19T08:12:20;98980.34;;;14.66;64.25
23281;BME280;11809;56.390;-3.266;2023-11-19T08:14:50;98979.94;;;14.71;64.14
23281;BME280;11809;56.390;-3.266;2023-11-19T08:17:24;98984.00;;;14.75;64.08
23281;BME280;11809;56.390;-3.266;2023-11-19T08:19:55;98968.28;;;14.73;64.09
23281;BME280;11809;56.390;-3.266;2023-11-19T08:22:27;98982.78;;;14.79;64.39
23281;BME280;11809;56.390;-3.266;2023-11-19T08:24:58;98986.13;;;14.81;64.35
23281;BME280;11809;56.390;-3.266;2023-11-19T08:27:28;98971.63;;;14.75;64.34
23281;BME280;11809;56.390;-3.266;2023-11-19T08:29:59;98978.34;;;14.79;64.55
23281;BME280;11809;56.390;-3.266;2023-11-19T08:32:32;98988.38;;;14.85;64.38
23281;BME280;11809;56.390;-3.266;2023-11-19T08:35:03;98990.06;;;14.86;64.71
23281;BME280;11809;56.390;-3.266;2023-11-19T08:37:36;98993.44;;;14.88;64.63
23281;BME280;11809;56.390;-3.266;2023-11-19T08:40:08;99014.59;;;14.88;64.92
23281;BME280;11809;56.390;-3.266;2023-11-19T08:42:39;98997.75;;;14.89;64.73
23281;BME280;11809;56.390;-3.266;2023-11-19T08:45:10;99002.91;;;14.91;64.64
23281;BME280;11809;56.390;-3.266;2023-11-19T08:47:43;98993.69;;;14.85;64.72
23281;BME280;11809;56.390;-3.266;2023-11-19T08:50:14;99005.28;;;14.94;64.71
23281;BME280;11809;56.390;-3.266;2023-11-19T08:52:44;99010.72;;;14.92;65.40
23281;BME280;11809;56.390;-3.266;2023-11-19T08:55:15;99000.31;;;14.80;65.47
23281;BME280;11809;56.390;-3.266;2023-11-19T08:57:45;99013.75;;;14.88;65.41
23281;BME280;11809;56.390;-3.266;2023-11-19T09:00:16;99003.34;;;14.75;65.27
23281;BME280;11809;56.390;-3.266;2023-11-19T09:02:51;99016.19;;;14.80;65.30
23281;BME280;11809;56.390;-3.266;2023-11-19T09:05:21;99016.31;;;14.78;65.34
23281;BME280;11809;56.390;-3.266;2023-11-19T09:07:52;99018.13;;;14.78;65.32
23281;BME280;11809;56.390;-3.266;2023-11-19T09:10:23;99008.72;;;14.85;65.02
23281;BME280;11809;56.390;-3.266;2023-11-19T09:12:54;99013.19;;;14.84;65.16
23281;BME280;11809;56.390;-3.266;2023-11-19T09:15:25;99014.03;;;14.85;64.79
23281;BME280;11809;56.390;-3.266;2023-11-19T09:17:58;99022.41;;;14.90;64.81
23281;BME280;11809;56.390;-3.266;2023-11-19T09:20:28;99004.25;;;14.85;64.81
23281;BME280;11809;56.390;-3.266;2023-11-19T09:23:05;99018.97;;;14.99;65.25
23281;BME280;11809;56.390;-3.266;2023-11-19T09:25:36;99025.38;;;14.96;65.50
23281;BME280;11809;56.390;-3.266;2023-11-19T09:28:10;99028.16;;;14.95;65.32
23281;BME280;11809;56.390;-3.266;2023-11-19T09:30:42;99030.44;;;14.88;65.09
23281;BME280;11809;56.390;-3.266;2023-11-19T09:33:15;99042.13;;;14.86;65.36
23281;BME280;11809;56.390;-3.266;2023-11-19T09:35:46;99037.69;;;14.86;65.42
23281;BME280;11809;56.390;-3.266;2023-11-19T09:38:17;99037.94;;;14.83;65.09
23281;BME280;11809;56.390;-3.266;2023-11-19T09:40:48;99034.44;;;14.83;64.89
23281;BME280;11809;56.390;-3.266;2023-11-19T09:43:19;99036.28;;;14.82;65.09
23281;BME280;11809;56.390;-3.266;2023-11-19T09:45:50;99039.47;;;14.86;64.93
23281;BME280;11809;56.390;-3.266;2023-11-19T09:48:25;99032.41;;;14.86;65.09
23281;BME280;11809;56.390;-3.266;2023-11-19T09:50:56;99036.84;;;14.86;65.00
23281;BME280;11809;56.390;-3.266;2023-11-19T09:53:27;99042.53;;;14.81;65.37
23281;BME280;11809;56.390;-3.266;2023-11-19T09:55:59;99045.47;;;14.88;65.63
23281;BME280;11809;56.390;-3.266;2023-11-19T09:58:30;99036.19;;;14.93;65.77
23281;BME280;11809;56.390;-3.266;2023-11-19T10:01:01;99050.91;;;14.86;67.04
23281;BME280;11809;56.390;-3.266;2023-11-19T10:03:41;99046.84;;;14.82;67.10
23281;BME280;11809;56.390;-3.266;2023-11-19T10:06:13;99039.78;;;14.72;66.48
23281;BME280;11809;56.390;-3.266;2023-11-19T10:08:46;99056.34;;;14.85;66.30
23281;BME280;11809;56.390;-3.266;2023-11-19T10:11:17;99056.91;;;14.88;66.45
23281;BME280;11809;56.390;-3.266;2023-11-19T10:13:49;99064.38;;;14.83;66.47
23281;BME280;11809;56.390;-3.266;2023-11-19T10:16:19;99065.03;;;14.76;66.72
23281;BME280;11809;56.390;-3.266;2023-11-19T10:18:53;99061.53;;;14.75;67.02
23281;BME280;11809;56.390;-3.266;2023-11-19T10:21:24;99049.91;;;14.67;67.98
23281;BME280;11809;56.390;-3.266;2023-11-19T10:23:56;99058.44;;;14.70;67.65
23281;BME280;11809;56.390;-3.266;2023-11-19T10:26:28;99063.72;;;14.70;67.15
23281;BME280;11809;56.390;-3.266;2023-11-19T10:29:01;99065.41;;;14.71;67.42
23281;BME280;11809;56.390;-3.266;2023-11-19T10:31:31;99061.91;;;14.71;67.44
23281;BME280;11809;56.390;-3.266;2023-11-19T10:34:24;99066.59;;;14.67;67.20
23281;BME280;11809;56.390;-3.266;2023-11-19T10:36:55;99072.88;;;14.66;67.08
23281;BME280;11809;56.390;-3.266;2023-11-19T10:42:18;99069.63;;;14.63;67.01
23281;BME280;11809;56.390;-3.266;2023-11-19T10:44:49;99071.44;;;14.62;66.93
23281;BME280;11809;56.390;-3.266;2023-11-19T10:47:19;99076.72;;;14.62;66.95
23281;BME280;11809;56.390;-3.266;2023-11-19T10:49:56;99066.88;;;14.53;66.82
23281;BME280;11809;56.390;-3.266;2023-11-19T10:52:27;99083.94;;;14.60;66.66
23281;BME280;11809;56.390;-3.266;2023-11-19T10:55:00;99071.47;;;14.51;66.77
23281;BME280;11809;56.390;-3.266;2023-11-19T10:57:34;99078.19;;;14.55;66.72
23281;BME280;11809;56.390;-3.266;2023-11-19T11:00:09;99079.84;;;14.56;66.93
23281;BME280;11809;56.390;-3.266;2023-11-19T11:02:45;99070.97;;;14.57;67.25
23281;BME280;11809;56.390;-3.266;2023-11-19T11:05:24;99078.91;;;14.57;66.85
23281;BME280;11809;56.390;-3.266;2023-11-19T11:07:56;99084.19;;;14.57;66.84
23281;BME280;11809;56.390;-3.266;2023-11-19T11:10:28;99082.50;;;14.56;66.89
23281;BME280;11809;56.390;-3.266;2023-11-19T11:13:03;99082.63;;;14.54;67.08
23281;BME280;11809;56.390;-3.266;2023-11-19T11:15:34;99079.38;;;14.51;66.68
23281;BME280;11809;56.390;-3.266;2023-11-19T11:18:07;99087.06;;;14.54;66.97
23281;BME280;11809;56.390;-3.266;2023-11-19T11:20:41;99091.53;;;14.53;67.04
23281;BME280;11809;56.390;-3.266;2023-11-19T11:26:30;99091.66;;;14.52;67.11
23281;BME280;11809;56.390;-3.266;2023-11-19T11:29:13;99088.03;;;14.53;66.64
23281;BME280;11809;56.390;-3.266;2023-11-19T11:31:51;99077.25;;;14.45;66.60
23281;BME280;11809;56.390;-3.266;2023-11-19T11:34:44;99086.38;;;14.52;66.83
23281;BME280;11809;56.390;-3.266;2023-11-19T11:37:26;99096.22;;;14.50;66.65
23281;BME280;11809;56.390;-3.266;2023-11-19T11:39:59;99092.50;;;14.52;67.15
23281;BME280;11809;56.390;-3.266;2023-11-19T11:42:34;99088.25;;;14.61;66.86
23281;BME280;11809;56.390;-3.266;2023-11-19T11:45:06;99081.53;;;14.57;66.46
23281;BME280;11809;56.390;-3.266;2023-11-19T11:48:08;99075.03;;;14.61;66.75
23281;BME280;11809;56.390;-3.266;2023-11-19T11:50:50;99080.06;;;14.64;66.50
23281;BME280;11809;56.390;-3.266;2023-11-19T11:53:25;99094.59;;;14.70;66.49
23281;BME280;11809;56.390;-3.266;2023-11-19T11:55:57;99093.75;;;14.69;66.46
23281;BME280;11809;56.390;-3.266;2023-11-19T11:58:32;99102.91;;;14.65;66.66
23281;BME280;11809;56.390;-3.266;2023-11-19T12:01:05;99095.94;;;14.64;67.00
23281;BME280;11809;56.390;-3.266;2023-11-19T12:03:37;99102.22;;;14.63;66.72
23281;BME280;11809;56.390;-3.266;2023-11-19T12:06:08;99091.38;;;14.66;66.95
23281;BME280;11809;56.390;-3.266;2023-11-19T12:08:41;99093.50;;;14.72;66.72
23281;BME280;11809;56.390;-3.266;2023-11-19T12:11:16;99088.59;;;14.68;66.44
23281;BME280;11809;56.390;-3.266;2023-11-19T12:13:57;99086.81;;;14.68;66.70
23281;BME280;11809;56.390;-3.266;2023-11-19T12:16:30;99097.38;;;14.68;66.80
23281;BME280;11809;56.390;-3.266;2023-11-19T12:19:05;99094.03;;;14.66;66.58
23281;BME280;11809;56.390;-3.266;2023-11-19T12:21:35;99101.13;;;14.66;66.88
23281;BME280;11809;56.390;-3.266;2023-11-19T12:24:09;99102.06;;;14.65;66.57
23281;BME280;11809;56.390;-3.266;2023-11-19T12:26:42;99107.59;;;14.62;66.96
23281;BME280;11809;56.390;-3.266;2023-11-19T12:29:15;99104.25;;;14.60;66.74
23281;BME280;11809;56.390;-3.266;2023-11-19T12:31:53;99108.44;;;14.62;66.77
23281;BME280;11809;56.390;-3.266;2023-11-19T12:34:40;99102.91;;;14.65;66.61
23281;BME280;11809;56.390;-3.266;2023-11-19T12:37:11;99100.97;;;14.67;66.65
23281;BME280;11809;56.390;-3.266;2023-11-19T12:39:45;99108.19;;;14.65;66.41
23281;BME280;11809;56.390;-3.266;2023-11-19T12:42:17;99102.22;;;14.63;66.54
23281;BME280;11809;56.390;-3.266;2023-11-19T12:44:54;99109.41;;;14.61;66.78
23281;BME280;11809;56.390;-3.266;2023-11-19T12:47:26;99100.53;;;14.51;66.74
23281;BME280;11809;56.390;-3.266;2023-11-19T12:49:56;99122.28;;;14.54;66.56
23281;BME280;11809;56.390;-3.266;2023-11-19T12:52:24;99118.09;;;14.52;66.64
23281;BME280;11809;56.390;-3.266;2023-11-19T12:54:57;99121.69;;;14.51;66.80
23281;BME280;11809;56.390;-3.266;2023-11-19T12:57:40;99115.22;;;14.44;66.96
23281;BME280;11809;56.390;-3.266;2023-11-19T13:00:19;99124.31;;;14.51;66.75
23281;BME280;11809;56.390;-3.266;2023-11-19T13:02:52;99130.09;;;14.56;66.45
23281;BME280;11809;56.390;-3.266;2023-11-19T13:05:25;99113.75;;;14.51;66.51
23281;BME280;11809;56.390;-3.266;2023-11-19T13:08:01;99122.06;;;14.46;66.73
23281;BME280;11809;56.390;-3.266;2023-11-19T13:10:51;99126.97;;;14.51;66.56
23281;BME280;11809;56.390;-3.266;2023-11-19T13:13:21;99128.53;;;14.42;66.79
23281;BME280;11809;56.390;-3.266;2023-11-19T13:15:52;99136.00;;;14.48;66.74
23281;BME280;11809;56.390;-3.266;2023-11-19T13:18:22;99136.97;;;14.47;66.57
23281;BME280;11809;56.390;-3.266;2023-11-19T13:21:11;99133.25;;;14.39;66.87
23281;BME280;11809;56.390;-3.266;2023-11-19T13:23:41;99141.19;;;14.39;66.56